sensor_id;sensor_type;location;lat;lon;timestamp;pressure;altitude;pressure_sealevel;temperature;humidity
60854;BME280;48554;50.766;2.900;2022-12-07T00:02:14;101435.00;;;18.66;45.58
60854;BME280;48554;50.766;2.900;2022-12-07T00:04:35;101439.44;;;19.01;44.81
60854;BME280;48554;50.766;2.900;2022-12-07T00:06:55;101426.69;;;19.08;44.73
60854;BME280;48554;50.766;2.900;2022-12-07T00:09:16;101431.19;;;18.91;44.93
60854;BME280;48554;50.766;2.900;2022-12-07T00:11:37;101428.78;;;18.77;45.12
60854;BME280;48554;50.766;2.900;2022-12-07T00:14:00;101421.66;;;18.71;45.31
60854;BME280;48554;50.766;2.900;2022-12-07T00:16:22;101420.19;;;18.64;45.45
60854;BME280;48554;50.766;2.900;2022-12-07T00:18:43;101424.38;;;18.59;45.54
60854;BME280;48554;50.766;2.900;2022-12-07T00:21:07;101422.88;;;18.52;45.70
60854;BME280;48554;50.766;2.900;2022-12-07T00:23:27;101422.88;;;18.52;45.80
60854;BME280;48554;50.766;2.900;2022-12-07T00:25:48;101417.84;;;18.55;45.68
60854;BME280;48554;50.766;2.900;2022-12-07T00:28:08;101408.88;;;18.61;45.60
60854;BME280;48554;50.766;2.900;2022-12-07T00:30:28;101407.66;;;18.69;45.45
60854;BME280;48554;50.766;2.900;2022-12-07T00:32:49;101401.34;;;18.75;45.28
60854;BME280;48554;50.766;2.900;2022-12-07T00:35:10;101417.00;;;18.78;45.18
60854;BME280;48554;50.766;2.900;2022-12-07T00:37:30;101404.72;;;19.11;44.45
60854;BME280;48554;50.766;2.900;2022-12-07T00:39:51;101406.09;;;19.14;44.43
60854;BME280;48554;50.766;2.900;2022-12-07T00:42:11;101415.28;;;19.01;44.57
60854;BME280;48554;50.766;2.900;2022-12-07T00:44:31;101410.22;;;18.88;44.74
60854;BME280;48554;50.766;2.900;2022-12-07T00:46:51;101411.38;;;18.80;45.00
60854;BME280;48554;50.766;2.900;2022-12-07T00:49:12;101407.19;;;18.72;45.02
60854;BME280;48554;50.766;2.900;2022-12-07T00:51:32;101407.00;;;18.62;45.16
60854;BME280;48554;50.766;2.900;2022-12-07T00:53:52;101404.53;;;18.60;45.33
60854;BME280;48554;50.766;2.900;2022-12-07T00:56:24;101403.13;;;18.58;45.42
60854;BME280;48554;50.766;2.900;2022-12-07T00:59:02;101400.34;;;18.53;45.36
60854;BME280;48554;50.766;2.900;2022-12-07T01:01:25;101403.53;;;18.50;45.71
60854;BME280;48554;50.766;2.900;2022-12-07T01:03:45;101398.50;;;18.53;45.63
60854;BME280;48554;50.766;2.900;2022-12-07T01:06:06;101397.53;;;18.59;45.46
60854;BME280;48554;50.766;2.900;2022-12-07T01:08:27;101395.44;;;19.02;44.43
60854;BME280;48554;50.766;2.900;2022-12-07T01:10:48;101396.44;;;19.30;44.03
60854;BME280;48554;50.766;2.900;2022-12-07T01:13:08;101396.94;;;19.27;44.01
60854;BME280;48554;50.766;2.900;2022-12-07T01:15:29;101395.34;;;19.14;44.17
60854;BME280;48554;50.766;2.900;2022-12-07T01:17:50;101408.19;;;18.95;44.47
60854;BME280;48554;50.766;2.900;2022-12-07T01:20:11;101401.22;;;18.82;44.89
60854;BME280;48554;50.766;2.900;2022-12-07T01:22:31;101400.50;;;18.75;45.04
60854;BME280;48554;50.766;2.900;2022-12-07T01:24:51;101400.09;;;18.66;45.11
60854;BME280;48554;50.766;2.900;2022-12-07T01:27:12;101399.75;;;18.63;45.35
60854;BME280;48554;50.766;2.900;2022-12-07T01:29:32;101411.78;;;18.60;45.01
60854;BME280;48554;50.766;2.900;2022-12-07T01:31:53;101417.41;;;18.58;45.18
60854;BME280;48554;50.766;2.900;2022-12-07T01:34:13;101402.59;;;18.56;45.23
60854;BME280;48554;50.766;2.900;2022-12-07T01:36:35;101411.66;;;18.55;45.25
60854;BME280;48554;50.766;2.900;2022-12-07T01:38:59;101411.34;;;18.51;45.37
60854;BME280;48554;50.766;2.900;2022-12-07T01:41:20;101411.31;;;18.63;45.01
60854;BME280;48554;50.766;2.900;2022-12-07T01:44:12;101408.41;;;19.22;43.86
60854;BME280;48554;50.766;2.900;2022-12-07T01:46:32;101409.41;;;19.50;43.58
60854;BME280;48554;50.766;2.900;2022-12-07T01:48:53;101414.66;;;19.28;43.94
60854;BME280;48554;50.766;2.900;2022-12-07T01:51:13;101414.41;;;19.12;44.22
60854;BME280;48554;50.766;2.900;2022-12-07T01:53:36;101416.91;;;19.02;44.44
60854;BME280;48554;50.766;2.900;2022-12-07T01:55:58;101421.28;;;18.91;44.67
60854;BME280;48554;50.766;2.900;2022-12-07T01:58:19;101423.53;;;18.83;44.91
60854;BME280;48554;50.766;2.900;2022-12-07T02:00:41;101419.09;;;18.76;45.14
60854;BME280;48554;50.766;2.900;2022-12-07T02:05:26;101422.97;;;18.69;45.03
60854;BME280;48554;50.766;2.900;2022-12-07T02:07:47;101419.13;;;18.65;45.06
60854;BME280;48554;50.766;2.900;2022-12-07T02:10:21;101408.63;;;18.63;45.07
60854;BME280;48554;50.766;2.900;2022-12-07T02:12:47;101406.41;;;18.60;45.03
60854;BME280;48554;50.766;2.900;2022-12-07T02:15:09;101411.19;;;18.58;45.11
60854;BME280;48554;50.766;2.900;2022-12-07T02:30:07;101389.06;;;18.91;44.63
60854;BME280;48554;50.766;2.900;2022-12-07T02:35:20;101386.72;;;18.95;44.57
60854;BME280;48554;50.766;2.900;2022-12-07T02:40:23;101385.13;;;18.82;44.73
60854;BME280;48554;50.766;2.900;2022-12-07T02:42:52;101385.25;;;18.75;44.88
60854;BME280;48554;50.766;2.900;2022-12-07T02:45:19;101385.13;;;18.70;44.96
60854;BME280;48554;50.766;2.900;2022-12-07T02:47:41;101385.88;;;18.66;44.88
60854;BME280;48554;50.766;2.900;2022-12-07T02:50:05;101382.59;;;18.64;45.09
60854;BME280;48554;50.766;2.900;2022-12-07T02:52:26;101381.22;;;18.61;45.09
60854;BME280;48554;50.766;2.900;2022-12-07T02:54:46;101382.78;;;18.74;45.08
60854;BME280;48554;50.766;2.900;2022-12-07T02:57:30;101379.88;;;19.04;44.11
60854;BME280;48554;50.766;2.900;2022-12-07T03:00:06;101379.50;;;19.12;44.00
60854;BME280;48554;50.766;2.900;2022-12-07T03:13:05;101382.44;;;18.70;44.88
60854;BME280;48554;50.766;2.900;2022-12-07T03:15:32;101385.25;;;18.75;44.69
60854;BME280;48554;50.766;2.900;2022-12-07T03:17:55;101383.28;;;18.83;44.64
60854;BME280;48554;50.766;2.900;2022-12-07T03:20:20;101379.28;;;18.85;44.67
60854;BME280;48554;50.766;2.900;2022-12-07T03:22:42;101372.41;;;18.77;44.63
60854;BME280;48554;50.766;2.900;2022-12-07T03:25:07;101369.88;;;18.71;44.78
60854;BME280;48554;50.766;2.900;2022-12-07T03:27:34;101374.28;;;18.65;44.95
60854;BME280;48554;50.766;2.900;2022-12-07T03:32:41;101362.34;;;18.85;44.47
60854;BME280;48554;50.766;2.900;2022-12-07T03:35:19;101359.06;;;19.11;44.01
60854;BME280;48554;50.766;2.900;2022-12-07T03:37:55;101354.97;;;19.09;43.95
60854;BME280;48554;50.766;2.900;2022-12-07T03:40:30;101358.47;;;18.92;44.28
60854;BME280;48554;50.766;2.900;2022-12-07T03:42:54;101353.63;;;18.77;44.52
60854;BME280;48554;50.766;2.900;2022-12-07T03:45:15;101356.09;;;18.67;44.67
60854;BME280;48554;50.766;2.900;2022-12-07T03:47:59;101353.31;;;18.62;44.82
60854;BME280;48554;50.766;2.900;2022-12-07T03:50:32;101354.28;;;18.56;44.94
60854;BME280;48554;50.766;2.900;2022-12-07T03:53:07;101351.81;;;18.54;45.11
60854;BME280;48554;50.766;2.900;2022-12-07T03:55:34;101355.91;;;18.57;45.00
60854;BME280;48554;50.766;2.900;2022-12-07T03:57:59;101346.91;;;18.63;44.84
60854;BME280;48554;50.766;2.900;2022-12-07T04:00:21;101347.81;;;18.69;44.72
60854;BME280;48554;50.766;2.900;2022-12-07T04:02:42;101347.66;;;18.75;44.53
60854;BME280;48554;50.766;2.900;2022-12-07T04:05:02;101351.41;;;18.74;44.51
60854;BME280;48554;50.766;2.900;2022-12-07T04:07:23;101343.13;;;18.76;44.55
60854;BME280;48554;50.766;2.900;2022-12-07T04:09:43;101335.06;;;19.05;43.94
60854;BME280;48554;50.766;2.900;2022-12-07T04:12:04;101339.28;;;19.17;43.50
60854;BME280;48554;50.766;2.900;2022-12-07T04:14:24;101339.94;;;19.08;43.89
60854;BME280;48554;50.766;2.900;2022-12-07T04:16:46;101334.53;;;18.91;44.20
60854;BME280;48554;50.766;2.900;2022-12-07T04:19:06;101338.59;;;18.76;44.51
60854;BME280;48554;50.766;2.900;2022-12-07T04:21:27;101342.44;;;18.69;44.65
60854;BME280;48554;50.766;2.900;2022-12-07T04:23:47;101349.59;;;18.63;44.74
60854;BME280;48554;50.766;2.900;2022-12-07T04:26:07;101346.56;;;18.59;44.80
60854;BME280;48554;50.766;2.900;2022-12-07T04:28:27;101345.16;;;18.57;44.72
60854;BME280;48554;50.766;2.900;2022-12-07T04:30:48;101340.28;;;18.54;44.47
60854;BME280;48554;50.766;2.900;2022-12-07T04:33:08;101346.13;;;18.51;44.94
60854;BME280;48554;50.766;2.900;2022-12-07T04:35:28;101346.13;;;18.51;45.07
60854;BME280;48554;50.766;2.900;2022-12-07T04:37:48;101348.81;;;18.51;44.99
60854;BME280;48554;50.766;2.900;2022-12-07T04:40:09;101339.91;;;18.91;44.02
60854;BME280;48554;50.766;2.900;2022-12-07T04:42:30;101344.31;;;19.31;43.41
60854;BME280;48554;50.766;2.900;2022-12-07T04:44:50;101344.75;;;19.39;43.34
60854;BME280;48554;50.766;2.900;2022-12-07T04:47:10;101351.16;;;19.21;43.66
60854;BME280;48554;50.766;2.900;2022-12-07T04:49:30;101349.44;;;18.98;43.99
60854;BME280;48554;50.766;2.900;2022-12-07T04:51:51;101360.94;;;18.82;44.46
60854;BME280;48554;50.766;2.900;2022-12-07T04:54:12;101358.88;;;18.72;44.74
60854;BME280;48554;50.766;2.900;2022-12-07T04:56:33;101359.84;;;18.66;44.75
60854;BME280;48554;50.766;2.900;2022-12-07T04:58:54;101368.59;;;18.61;44.66
60854;BME280;48554;50.766;2.900;2022-12-07T05:01:16;101362.88;;;18.58;44.79
60854;BME280;48554;50.766;2.900;2022-12-07T05:03:36;101363.63;;;18.53;44.95
60854;BME280;48554;50.766;2.900;2022-12-07T05:05:57;101353.13;;;18.52;44.76
60854;BME280;48554;50.766;2.900;2022-12-07T05:08:17;101353.59;;;18.49;44.76
60854;BME280;48554;50.766;2.900;2022-12-07T05:10:37;101360.28;;;18.46;44.89
60854;BME280;48554;50.766;2.900;2022-12-07T05:12:58;101350.53;;;18.57;44.72
60854;BME280;48554;50.766;2.900;2022-12-07T05:15:18;101334.53;;;18.91;43.88
60854;BME280;48554;50.766;2.900;2022-12-07T05:17:38;101337.50;;;19.23;43.44
60854;BME280;48554;50.766;2.900;2022-12-07T05:19:58;101334.47;;;19.02;43.69
60854;BME280;48554;50.766;2.900;2022-12-07T05:22:19;101337.72;;;18.88;44.09
60854;BME280;48554;50.766;2.900;2022-12-07T05:24:39;101339.25;;;18.84;44.33
60854;BME280;48554;50.766;2.900;2022-12-07T05:26:59;101339.25;;;18.84;44.31
60854;BME280;48554;50.766;2.900;2022-12-07T05:29:19;101344.03;;;18.81;44.15
60854;BME280;48554;50.766;2.900;2022-12-07T05:31:40;101356.75;;;18.74;44.23
60854;BME280;48554;50.766;2.900;2022-12-07T05:34:01;101359.03;;;18.66;44.46
60854;BME280;48554;50.766;2.900;2022-12-07T05:36:21;101356.22;;;18.60;44.56
60854;BME280;48554;50.766;2.900;2022-12-07T05:38:42;101352.63;;;18.55;44.69
60854;BME280;48554;50.766;2.900;2022-12-07T05:41:04;101349.38;;;18.53;44.68
60854;BME280;48554;50.766;2.900;2022-12-07T05:43:24;101354.41;;;18.49;44.90
60854;BME280;48554;50.766;2.900;2022-12-07T05:45:44;101353.94;;;18.52;44.77
60854;BME280;48554;50.766;2.900;2022-12-07T05:48:05;101339.75;;;18.80;44.31
60854;BME280;48554;50.766;2.900;2022-12-07T05:50:25;101333.19;;;19.05;43.62
60854;BME280;48554;50.766;2.900;2022-12-07T05:52:45;101331.38;;;18.94;43.86
60854;BME280;48554;50.766;2.900;2022-12-07T05:55:06;101333.53;;;18.80;44.04
60854;BME280;48554;50.766;2.900;2022-12-07T05:57:26;101333.59;;;18.68;44.39
60854;BME280;48554;50.766;2.900;2022-12-07T05:59:47;101335.25;;;18.57;44.61
60854;BME280;48554;50.766;2.900;2022-12-07T06:02:12;101339.22;;;18.55;44.68
60854;BME280;48554;50.766;2.900;2022-12-07T06:04:36;101336.06;;;18.58;44.63
60854;BME280;48554;50.766;2.900;2022-12-07T06:06:56;101341.53;;;18.63;44.58
60854;BME280;48554;50.766;2.900;2022-12-07T06:09:18;101338.38;;;18.66;44.49
60854;BME280;48554;50.766;2.900;2022-12-07T06:11:39;101337.38;;;18.72;44.75
60854;BME280;48554;50.766;2.900;2022-12-07T06:14:00;101338.94;;;18.68;44.49
60854;BME280;48554;50.766;2.900;2022-12-07T06:16:20;101349.00;;;18.61;44.65
60854;BME280;48554;50.766;2.900;2022-12-07T06:18:40;101337.34;;;18.55;44.94
60854;BME280;48554;50.766;2.900;2022-12-07T06:21:00;101334.81;;;18.77;44.92
60854;BME280;48554;50.766;2.900;2022-12-07T06:23:21;101332.09;;;19.06;44.30
60854;BME280;48554;50.766;2.900;2022-12-07T06:25:45;101342.47;;;19.14;44.06
60854;BME280;48554;50.766;2.900;2022-12-07T06:28:05;101333.00;;;18.95;44.73
60854;BME280;48554;50.766;2.900;2022-12-07T06:30:26;101339.75;;;18.80;44.78
60854;BME280;48554;50.766;2.900;2022-12-07T06:32:46;101339.50;;;18.70;44.76
60854;BME280;48554;50.766;2.900;2022-12-07T06:35:06;101336.19;;;18.63;45.05
60854;BME280;48554;50.766;2.900;2022-12-07T06:37:27;101340.59;;;18.57;45.00
60854;BME280;48554;50.766;2.900;2022-12-07T06:39:47;101336.53;;;18.55;45.16
60854;BME280;48554;50.766;2.900;2022-12-07T06:42:07;101347.84;;;18.57;45.24
60854;BME280;48554;50.766;2.900;2022-12-07T06:44:28;101349.38;;;18.53;45.38
60854;BME280;48554;50.766;2.900;2022-12-07T06:46:49;101357.06;;;18.61;45.99
60854;BME280;48554;50.766;2.900;2022-12-07T06:49:09;101353.97;;;18.69;46.62
60854;BME280;48554;50.766;2.900;2022-12-07T06:51:30;101363.78;;;18.75;47.04
60854;BME280;48554;50.766;2.900;2022-12-07T06:53:50;101360.72;;;18.84;47.48
60854;BME280;48554;50.766;2.900;2022-12-07T06:56:11;101364.47;;;18.83;47.20
60854;BME280;48554;50.766;2.900;2022-12-07T06:58:31;101362.84;;;18.81;48.27
60854;BME280;48554;50.766;2.900;2022-12-07T07:00:51;101358.38;;;19.04;47.67
60854;BME280;48554;50.766;2.900;2022-12-07T07:03:11;101358.38;;;19.04;47.98
60854;BME280;48554;50.766;2.900;2022-12-07T07:05:32;101360.31;;;18.92;47.53
60854;BME280;48554;50.766;2.900;2022-12-07T07:07:52;101353.16;;;18.80;47.60
60854;BME280;48554;50.766;2.900;2022-12-07T07:10:12;101358.88;;;18.72;47.54
60854;BME280;48554;50.766;2.900;2022-12-07T07:12:32;101361.47;;;18.67;47.59
60854;BME280;48554;50.766;2.900;2022-12-07T07:14:53;101367.31;;;18.64;47.48
60854;BME280;48554;50.766;2.900;2022-12-07T07:17:13;101360.78;;;18.60;47.46
60854;BME280;48554;50.766;2.900;2022-12-07T07:19:33;101361.28;;;18.57;47.61
60854;BME280;48554;50.766;2.900;2022-12-07T07:21:53;101363.38;;;18.55;47.70
60854;BME280;48554;50.766;2.900;2022-12-07T07:24:14;101373.28;;;18.54;47.58
60854;BME280;48554;50.766;2.900;2022-12-07T07:26:34;101367.59;;;18.51;47.69
60854;BME280;48554;50.766;2.900;2022-12-07T07:28:54;101376.69;;;18.50;47.58
60854;BME280;48554;50.766;2.900;2022-12-07T07:31:14;101368.31;;;18.46;47.68
60854;BME280;48554;50.766;2.900;2022-12-07T07:33:35;101370.16;;;18.46;47.72
60854;BME280;48554;50.766;2.900;2022-12-07T07:35:55;101362.59;;;18.43;47.59
60854;BME280;48554;50.766;2.900;2022-12-07T07:38:15;101362.84;;;18.41;47.71
60854;BME280;48554;50.766;2.900;2022-12-07T07:40:35;101363.66;;;18.42;47.56
60854;BME280;48554;50.766;2.900;2022-12-07T07:42:56;101355.50;;;18.36;47.67
60854;BME280;48554;50.766;2.900;2022-12-07T07:45:17;101354.69;;;18.36;47.61
60854;BME280;48554;50.766;2.900;2022-12-07T07:47:38;101359.22;;;18.35;47.41
60854;BME280;48554;50.766;2.900;2022-12-07T07:49:58;101366.69;;;18.33;47.82
60854;BME280;48554;50.766;2.900;2022-12-07T07:52:18;101358.91;;;18.32;47.58
60854;BME280;48554;50.766;2.900;2022-12-07T07:54:39;101369.06;;;18.30;47.64
60854;BME280;48554;50.766;2.900;2022-12-07T07:56:59;101370.09;;;18.29;47.72
60854;BME280;48554;50.766;2.900;2022-12-07T07:59:19;101370.34;;;18.27;47.59
60854;BME280;48554;50.766;2.900;2022-12-07T08:01:39;101371.38;;;18.26;47.66
60854;BME280;48554;50.766;2.900;2022-12-07T08:04:00;101378.63;;;18.26;47.63
60854;BME280;48554;50.766;2.900;2022-12-07T08:06:20;101378.88;;;18.24;47.75
60854;BME280;48554;50.766;2.900;2022-12-07T08:08:40;101375.59;;;18.22;47.64
60854;BME280;48554;50.766;2.900;2022-12-07T08:11:00;101384.69;;;18.21;47.65
60854;BME280;48554;50.766;2.900;2022-12-07T08:13:21;101377.69;;;18.20;47.50
60854;BME280;48554;50.766;2.900;2022-12-07T08:15:45;101390.53;;;18.18;47.65
60854;BME280;48554;50.766;2.900;2022-12-07T08:18:07;101394.28;;;18.17;47.51
60854;BME280;48554;50.766;2.900;2022-12-07T08:20:30;101388.91;;;18.17;47.50
60854;BME280;48554;50.766;2.900;2022-12-07T08:22:50;101384.00;;;18.14;47.54
60854;BME280;48554;50.766;2.900;2022-12-07T08:25:10;101392.88;;;18.14;47.61
60854;BME280;48554;50.766;2.900;2022-12-07T08:27:30;101401.72;;;18.15;47.60
60854;BME280;48554;50.766;2.900;2022-12-07T08:29:51;101401.16;;;18.13;47.58
60854;BME280;48554;50.766;2.900;2022-12-07T08:32:11;101402.22;;;18.12;47.61
60854;BME280;48554;50.766;2.900;2022-12-07T08:34:31;101397.88;;;18.11;47.44
60854;BME280;48554;50.766;2.900;2022-12-07T08:36:51;101404.31;;;18.10;47.63
60854;BME280;48554;50.766;2.900;2022-12-07T08:39:12;101402.66;;;18.09;47.51
60854;BME280;48554;50.766;2.900;2022-12-07T08:41:32;101403.72;;;18.08;47.58
60854;BME280;48554;50.766;2.900;2022-12-07T08:43:53;101411.19;;;18.06;47.69
60854;BME280;48554;50.766;2.900;2022-12-07T08:46:31;101410.59;;;18.04;47.63
60854;BME280;48554;50.766;2.900;2022-12-07T08:51:15;101417.03;;;18.03;47.54
60854;BME280;48554;50.766;2.900;2022-12-07T08:53:36;101413.75;;;18.01;47.35
60854;BME280;48554;50.766;2.900;2022-12-07T08:55:57;101412.94;;;18.00;47.37
60854;BME280;48554;50.766;2.900;2022-12-07T08:58:17;101410.47;;;17.99;47.43
60854;BME280;48554;50.766;2.900;2022-12-07T09:00:38;101410.47;;;17.99;47.43
60854;BME280;48554;50.766;2.900;2022-12-07T09:02:58;101412.34;;;17.98;47.37
60854;BME280;48554;50.766;2.900;2022-12-07T09:05:18;101407.22;;;17.96;47.42
60854;BME280;48554;50.766;2.900;2022-12-07T09:07:39;101409.31;;;17.94;47.44
60854;BME280;48554;50.766;2.900;2022-12-07T09:09:59;101411.19;;;17.94;47.31
60854;BME280;48554;50.766;2.900;2022-12-07T09:12:19;101405.00;;;17.93;47.39
60854;BME280;48554;50.766;2.900;2022-12-07T09:14:40;101396.38;;;17.91;47.35
60854;BME280;48554;50.766;2.900;2022-12-07T09:17:08;101387.75;;;17.89;47.37
60854;BME280;48554;50.766;2.900;2022-12-07T09:19:29;101392.31;;;17.89;47.43
60854;BME280;48554;50.766;2.900;2022-12-07T09:21:49;101391.50;;;17.88;47.44
60854;BME280;48554;50.766;2.900;2022-12-07T09:24:09;101396.84;;;17.88;47.42
60854;BME280;48554;50.766;2.900;2022-12-07T09:26:31;101389.84;;;17.87;47.35
60854;BME280;48554;50.766;2.900;2022-12-07T09:28:51;101387.41;;;17.86;47.41
60854;BME280;48554;50.766;2.900;2022-12-07T09:31:11;101390.31;;;17.84;47.39
60854;BME280;48554;50.766;2.900;2022-12-07T09:33:32;101389.50;;;17.84;47.38
60854;BME280;48554;50.766;2.900;2022-12-07T09:35:52;101390.31;;;17.84;47.33
60854;BME280;48554;50.766;2.900;2022-12-07T09:38:13;101394.88;;;17.84;47.28
60854;BME280;48554;50.766;2.900;2022-12-07T09:40:33;101386.25;;;17.82;47.49
60854;BME280;48554;50.766;2.900;2022-12-07T09:42:54;101389.97;;;17.81;47.47
60854;BME280;48554;50.766;2.900;2022-12-07T09:45:25;101389.19;;;17.80;47.54
60854;BME280;48554;50.766;2.900;2022-12-07T09:47:47;101387.50;;;17.79;47.36
60854;BME280;48554;50.766;2.900;2022-12-07T09:50:13;101380.75;;;17.76;47.42
60854;BME280;48554;50.766;2.900;2022-12-07T09:52:33;101380.50;;;17.78;47.39
60854;BME280;48554;50.766;2.900;2022-12-07T09:54:54;101381.53;;;17.77;47.42
60854;BME280;48554;50.766;2.900;2022-12-07T09:57:15;101378.28;;;17.75;47.31
60854;BME280;48554;50.766;2.900;2022-12-07T09:59:35;101380.97;;;17.75;47.31
60854;BME280;48554;50.766;2.900;2022-12-07T10:01:55;101379.34;;;17.74;47.41
60854;BME280;48554;50.766;2.900;2022-12-07T10:04:37;101384.69;;;17.74;47.56
60854;BME280;48554;50.766;2.900;2022-12-07T10:06:57;101385.50;;;17.74;47.50
60854;BME280;48554;50.766;2.900;2022-12-07T10:09:19;101377.72;;;17.73;47.58
60854;BME280;48554;50.766;2.900;2022-12-07T10:14:28;101375.03;;;17.73;47.32
60854;BME280;48554;50.766;2.900;2022-12-07T10:16:48;101371.53;;;17.72;47.40
60854;BME280;48554;50.766;2.900;2022-12-07T10:19:25;101367.44;;;17.70;47.42
60854;BME280;48554;50.766;2.900;2022-12-07T10:22:10;101358.59;;;17.69;47.38
60854;BME280;48554;50.766;2.900;2022-12-07T10:24:31;101374.44;;;17.71;47.53
60854;BME280;48554;50.766;2.900;2022-12-07T10:26:52;101365.81;;;17.69;47.57
60854;BME280;48554;50.766;2.900;2022-12-07T10:31:40;101365.81;;;17.69;47.51
60854;BME280;48554;50.766;2.900;2022-12-07T10:34:01;101360.47;;;17.69;47.57
60854;BME280;48554;50.766;2.900;2022-12-07T10:36:35;101364.75;;;17.70;47.36
60854;BME280;48554;50.766;2.900;2022-12-07T10:39:23;101353.59;;;17.73;47.36
60854;BME280;48554;50.766;2.900;2022-12-07T10:42:15;101351.72;;;17.73;47.44
60854;BME280;48554;50.766;2.900;2022-12-07T10:44:35;101349.63;;;17.75;47.31
60854;BME280;48554;50.766;2.900;2022-12-07T10:50:17;101348.34;;;17.78;47.64
60854;BME280;48554;50.766;2.900;2022-12-07T10:57:51;101330.22;;;17.80;47.57
60854;BME280;48554;50.766;2.900;2022-12-07T11:26:51;101295.47;;;17.85;47.76
60854;BME280;48554;50.766;2.900;2022-12-07T11:30:08;101297.56;;;17.83;47.92
60854;BME280;48554;50.766;2.900;2022-12-07T11:36:56;101291.63;;;17.81;47.94
60854;BME280;48554;50.766;2.900;2022-12-07T11:41:43;101286.72;;;17.78;47.91
60854;BME280;48554;50.766;2.900;2022-12-07T11:44:08;101287.75;;;17.77;47.79
60854;BME280;48554;50.766;2.900;2022-12-07T11:49:44;101280.75;;;17.76;47.69
60854;BME280;48554;50.766;2.900;2022-12-07T11:52:16;101283.66;;;17.74;47.89
60854;BME280;48554;50.766;2.900;2022-12-07T11:54:40;101275.88;;;17.73;47.85
60854;BME280;48554;50.766;2.900;2022-12-07T11:57:10;101277.72;;;17.72;47.72
60854;BME280;48554;50.766;2.900;2022-12-07T11:59:43;101276.09;;;17.71;47.83
60854;BME280;48554;50.766;2.900;2022-12-07T12:02:15;101264.81;;;17.69;47.73
60854;BME280;48554;50.766;2.900;2022-12-07T12:04:55;101261.31;;;17.69;47.66
60854;BME280;48554;50.766;2.900;2022-12-07T12:07:22;101267.72;;;17.68;47.92
60854;BME280;48554;50.766;2.900;2022-12-07T12:09:51;101251.63;;;17.68;47.67
60854;BME280;48554;50.766;2.900;2022-12-07T12:21:00;101245.81;;;17.71;47.78
60854;BME280;48554;50.766;2.900;2022-12-07T12:23:24;101243.16;;;17.71;47.58
60854;BME280;48554;50.766;2.900;2022-12-07T12:25:58;101246.84;;;17.70;47.59
60854;BME280;48554;50.766;2.900;2022-12-07T12:30:45;101248.25;;;17.72;47.77
60854;BME280;48554;50.766;2.900;2022-12-07T12:33:28;101239.66;;;17.70;47.59
60854;BME280;48554;50.766;2.900;2022-12-07T12:43:58;101240.09;;;17.67;47.67
60854;BME280;48554;50.766;2.900;2022-12-07T12:48:52;101233.94;;;17.67;47.69
60854;BME280;48554;50.766;2.900;2022-12-07T12:53:51;101227.78;;;17.66;47.87
60854;BME280;48554;50.766;2.900;2022-12-07T12:56:40;101222.41;;;17.66;47.71
60854;BME280;48554;50.766;2.900;2022-12-07T12:59:23;101221.59;;;17.66;47.81
60854;BME280;48554;50.766;2.900;2022-12-07T13:01:46;101217.84;;;17.67;47.57
60854;BME280;48554;50.766;2.900;2022-12-07T13:07:11;101214.13;;;17.68;47.90
60854;BME280;48554;50.766;2.900;2022-12-07T13:09:34;101205.03;;;17.69;47.73
60854;BME280;48554;50.766;2.900;2022-12-07T13:12:11;101208.31;;;17.71;47.78
60854;BME280;48554;50.766;2.900;2022-12-07T13:14:42;101206.22;;;17.73;47.62
60854;BME280;48554;50.766;2.900;2022-12-07T13:17:03;101208.41;;;17.76;47.60
60854;BME280;48554;50.766;2.900;2022-12-07T13:19:53;101200.09;;;17.77;47.72
60854;BME280;48554;50.766;2.900;2022-12-07T13:25:11;101206.31;;;17.78;47.60
60854;BME280;48554;50.766;2.900;2022-12-07T13:27:33;101195.59;;;17.78;47.70
60854;BME280;48554;50.766;2.900;2022-12-07T13:29:56;101199.31;;;17.77;47.60
60854;BME280;48554;50.766;2.900;2022-12-07T13:32:24;101197.44;;;17.77;47.64
60854;BME280;48554;50.766;2.900;2022-12-07T13:34:45;101187.53;;;17.78;47.71
60854;BME280;48554;50.766;2.900;2022-12-07T13:37:25;101189.38;;;17.77;47.67
60854;BME280;48554;50.766;2.900;2022-12-07T13:44:49;101178.94;;;17.76;47.62
60854;BME280;48554;50.766;2.900;2022-12-07T13:47:17;101176.25;;;17.76;47.62
60854;BME280;48554;50.766;2.900;2022-12-07T13:49:55;101161.78;;;17.77;47.54
60854;BME280;48554;50.766;2.900;2022-12-07T13:52:23;101168.53;;;17.80;47.58
60854;BME280;48554;50.766;2.900;2022-12-07T13:57:25;101167.28;;;17.82;47.42
60854;BME280;48554;50.766;2.900;2022-12-07T13:59:47;101163.56;;;17.83;47.38
60854;BME280;48554;50.766;2.900;2022-12-07T14:02:28;101168.44;;;17.86;47.57
60854;BME280;48554;50.766;2.900;2022-12-07T14:04:50;101174.59;;;17.87;47.41
60854;BME280;48554;50.766;2.900;2022-12-07T14:07:28;101164.47;;;17.89;47.52
60854;BME280;48554;50.766;2.900;2022-12-07T14:10:05;101165.25;;;17.89;47.35
60854;BME280;48554;50.766;2.900;2022-12-07T14:12:27;101155.59;;;17.88;47.45
60854;BME280;48554;50.766;2.900;2022-12-07T14:14:48;101160.97;;;17.88;47.44
60854;BME280;48554;50.766;2.900;2022-12-07T14:17:16;101152.94;;;17.88;47.40
60854;BME280;48554;50.766;2.900;2022-12-07T14:22:23;101143.25;;;17.87;47.46
60854;BME280;48554;50.766;2.900;2022-12-07T14:24:44;101144.06;;;17.88;47.42
60854;BME280;48554;50.766;2.900;2022-12-07T14:27:17;101143.25;;;17.87;47.69
60854;BME280;48554;50.766;2.900;2022-12-07T14:29:37;101141.13;;;17.89;47.49
60854;BME280;48554;50.766;2.900;2022-12-07T14:32:17;101138.72;;;17.88;47.52
60854;BME280;48554;50.766;2.900;2022-12-07T14:34:38;101131.72;;;17.87;47.52
60854;BME280;48554;50.766;2.900;2022-12-07T14:36:59;101122.63;;;17.88;47.46
60854;BME280;48554;50.766;2.900;2022-12-07T14:39:19;101127.75;;;17.89;47.31